createdAt,value
2019-02-23T00:01:16.264Z,0
2019-02-23T00:03:41.136Z,0
2019-02-23T00:04:38.717Z,0
2019-02-23T00:05:28.064Z,0
2019-02-23T00:18:42.511Z,0
2019-02-23T00:19:31.617Z,0
2019-02-23T00:20:22.922Z,0
2019-02-23T00:39:43.565Z,0
2019-02-23T00:57:07.697Z,0
2019-02-23T01:08:55.886Z,0
2019-02-23T01:09:42.784Z,0
2019-02-23T01:10:26.565Z,0
2019-02-23T01:11:08.520Z,0
2019-02-23T01:11:50.312Z,0
2019-02-23T01:12:31.980Z,0
2019-02-23T01:13:12.927Z,0
2019-02-23T01:13:55.578Z,0
2019-02-23T01:14:36.533Z,0
2019-02-23T01:15:19.860Z,0
2019-02-23T01:16:00.129Z,0
2019-02-23T01:16:41.742Z,0
2019-02-23T01:17:23.823Z,0
2019-02-23T01:18:06.841Z,0
2019-02-23T01:18:48.965Z,0
2019-02-23T01:19:32.044Z,0
2019-02-23T01:20:12.499Z,0
2019-02-23T01:20:54.124Z,0
2019-02-23T01:21:35.666Z,0
2019-02-23T01:22:16.319Z,0
2019-02-23T01:22:56.718Z,0
2019-02-23T01:23:37.706Z,0
2019-02-23T01:24:20.419Z,0
2019-02-23T01:25:01.160Z,0
2019-02-23T01:25:41.831Z,0
2019-02-23T01:26:22.302Z,0
2019-02-23T01:27:02.932Z,0
2019-02-23T01:27:44.158Z,0
2019-02-23T01:28:25.033Z,0
2019-02-23T01:29:05.267Z,0
2019-02-23T01:29:45.610Z,0
2019-02-23T01:30:26.068Z,0
2019-02-23T01:31:06.526Z,0
2019-02-23T01:31:46.942Z,0
2019-02-23T01:32:28.088Z,0
2019-02-23T01:33:09.433Z,0
2019-02-23T01:33:49.906Z,0
2019-02-23T01:34:32.054Z,0
2019-02-23T01:35:12.637Z,0
2019-02-23T01:35:54.083Z,0
2019-02-23T01:36:36.633Z,0
2019-02-23T01:37:17.829Z,0
2019-02-23T01:37:58.085Z,0
2019-02-23T01:38:40.583Z,0
2019-02-23T01:39:21.251Z,0
2019-02-23T01:40:04.757Z,0
2019-02-23T01:40:45.685Z,0
2019-02-23T01:41:26.176Z,0
2019-02-23T01:42:07.223Z,0
2019-02-23T01:42:47.547Z,0
2019-02-23T01:43:28.052Z,0
2019-02-23T01:44:08.846Z,0
2019-02-23T01:44:49.426Z,0
2019-02-23T01:45:29.890Z,0
2019-02-23T01:46:10.361Z,0
2019-02-23T01:46:50.799Z,0
2019-02-23T01:47:31.210Z,0
2019-02-23T01:48:11.625Z,0
2019-02-23T01:48:52.062Z,0
2019-02-23T01:49:32.508Z,0
2019-02-23T01:50:13.725Z,0
2019-02-23T01:50:54.615Z,0
2019-02-23T01:51:35.429Z,0
2019-02-23T01:52:15.794Z,0
2019-02-23T01:52:57.604Z,0
2019-02-23T01:53:37.644Z,0
2019-02-23T01:54:18.110Z,0
2019-02-23T01:54:58.545Z,0
2019-02-23T01:55:39.533Z,0
2019-02-23T01:56:19.719Z,0
2019-02-23T01:57:00.559Z,0
2019-02-23T01:57:40.885Z,0
2019-02-23T01:58:21.619Z,0
2019-02-23T01:59:02.298Z,0
2019-02-23T01:59:42.767Z,0
2019-02-23T02:00:23.260Z,0
2019-02-23T02:01:04.331Z,0
2019-02-23T02:01:45.779Z,0
2019-02-23T02:02:25.933Z,0
2019-02-23T02:03:07.338Z,0
2019-02-23T02:03:48.328Z,0
2019-02-23T02:04:28.817Z,0
2019-02-23T02:05:09.276Z,0
2019-02-23T02:05:49.735Z,0
2019-02-23T02:06:30.335Z,0
2019-02-23T02:07:10.827Z,0
2019-02-23T02:07:51.282Z,0
2019-02-23T02:08:31.999Z,0
2019-02-23T02:09:12.485Z,0
2019-02-23T02:09:52.935Z,0
2019-02-23T02:10:33.995Z,0
2019-02-23T02:11:16.610Z,0
2019-02-23T02:11:56.663Z,0
2019-02-23T02:12:37.056Z,0
2019-02-23T02:13:17.883Z,0
2019-02-23T02:13:58.720Z,0
2019-02-23T02:14:38.991Z,0
2019-02-23T02:15:26.535Z,0
2019-02-23T02:16:08.877Z,0
2019-02-23T02:32:41.243Z,0
2019-02-23T02:33:37.082Z,0
2019-02-23T02:34:12.950Z,0
2019-02-23T02:34:54.871Z,0
2019-02-23T02:35:36.607Z,0
2019-02-23T02:36:17.401Z,0
2019-02-23T02:37:02.639Z,0
2019-02-23T02:37:44.945Z,0
2019-02-23T02:38:35.905Z,0
2019-02-23T02:39:19.858Z,0
2019-02-23T02:40:00.327Z,0
2019-02-23T02:40:42.687Z,0
2019-02-23T02:41:42.193Z,0
2019-02-23T02:42:28.462Z,0
2019-02-23T02:45:16.473Z,0
2019-02-23T02:57:22.591Z,0
2019-02-23T02:58:14.999Z,0
2019-02-23T02:59:03.772Z,0
2019-02-23T02:59:52.762Z,0
2019-02-23T03:00:40.447Z,0
2019-02-23T03:01:33.015Z,0
2019-02-23T03:02:28.284Z,0
2019-02-23T03:03:20.979Z,0
2019-02-23T03:07:29.012Z,0
2019-02-23T03:08:16.879Z,0
2019-02-23T03:09:11.964Z,0
2019-02-23T03:10:01.839Z,0
2019-02-23T03:10:50.355Z,0
2019-02-23T03:11:39.577Z,0
2019-02-23T03:12:26.115Z,0
2019-02-23T03:13:17.053Z,0
2019-02-23T03:17:23.725Z,0
2019-02-23T03:18:11.268Z,0
2019-02-23T03:19:00.513Z,0
2019-02-23T03:21:40.539Z,0
2019-02-23T03:22:37.843Z,0
2019-02-23T03:23:27.288Z,0
2019-02-23T03:24:22.338Z,0
2019-02-23T03:25:18.409Z,0
2019-02-23T03:34:56.177Z,0
2019-02-23T03:35:50.771Z,0
2019-02-23T03:36:41.111Z,0
2019-02-23T03:37:30.127Z,0
2019-02-23T03:38:22.373Z,0
2019-02-23T03:39:10.971Z,0
2019-02-23T03:40:00.705Z,0
2019-02-23T03:40:51.801Z,0
2019-02-23T03:41:46.380Z,0
2019-02-23T03:52:16.286Z,0
2019-02-23T03:59:06.698Z,0
2019-02-23T04:03:12.452Z,0
2019-02-23T04:04:08.095Z,0
2019-02-23T04:05:01.548Z,0
2019-02-23T04:05:50.276Z,0
2019-02-23T04:06:44.168Z,0
2019-02-23T04:07:42.269Z,0
2019-02-23T04:08:19.868Z,0
2019-02-23T04:09:02.598Z,0
2019-02-23T04:09:41.882Z,0
2019-02-23T04:10:22.365Z,0
2019-02-23T04:11:02.798Z,0
2019-02-23T04:11:43.791Z,0
2019-02-23T04:12:25.424Z,0
2019-02-23T04:13:05.740Z,0
2019-02-23T04:13:46.273Z,0
2019-02-23T04:14:27.181Z,0
2019-02-23T04:15:07.825Z,0
2019-02-23T04:15:48.859Z,0
2019-02-23T04:16:29.925Z,0
2019-02-23T04:17:10.292Z,0
2019-02-23T04:17:50.960Z,0
2019-02-23T04:18:32.044Z,0
2019-02-23T04:19:12.809Z,0
2019-02-23T04:19:53.584Z,0
2019-02-23T04:20:34.287Z,0
2019-02-23T04:21:14.640Z,0
2019-02-23T04:21:55.847Z,0
2019-02-23T04:22:37.136Z,0
2019-02-23T04:23:17.890Z,0
2019-02-23T04:23:58.962Z,0
2019-02-23T04:24:40.946Z,0
2019-02-23T04:25:21.728Z,0
2019-02-23T04:26:02.792Z,0
2019-02-23T04:26:43.386Z,0
2019-02-23T04:27:23.859Z,0
2019-02-23T05:08:06.626Z,0
2019-02-23T05:12:19.695Z,0
2019-02-23T05:14:49.011Z,0
2019-02-23T05:17:26.829Z,0
2019-02-23T05:18:19.942Z,0
2019-02-23T05:19:15.213Z,0
2019-02-23T05:22:06.047Z,0
2019-02-23T05:23:10.087Z,0
2019-02-23T05:24:05.078Z,0
2019-02-23T05:24:55.805Z,0
2019-02-23T05:29:13.014Z,0
2019-02-23T05:30:05.973Z,0
2019-02-23T05:30:58.283Z,0
2019-02-23T05:31:48.842Z,0
2019-02-23T05:32:39.102Z,0
2019-02-23T05:33:28.100Z,0
2019-02-23T05:38:43.089Z,0
2019-02-23T05:41:31.930Z,0
2019-02-23T05:42:26.530Z,0
2019-02-23T05:43:18.682Z,0
2019-02-23T05:44:11.295Z,0
2019-02-23T05:45:02.303Z,0
2019-02-23T05:45:53.244Z,0
2019-02-23T05:48:35.904Z,0
2019-02-23T05:49:20.047Z,0
2019-02-23T05:50:00.739Z,0
2019-02-23T05:50:41.624Z,0
2019-02-23T05:51:25.697Z,0
2019-02-23T05:55:12.318Z,0
2019-02-23T05:55:56.062Z,0
2019-02-23T05:56:37.042Z,0
2019-02-23T05:57:17.478Z,0
2019-02-23T05:57:57.997Z,0
2019-02-23T05:58:38.622Z,0
2019-02-23T05:59:19.197Z,0
2019-02-23T05:59:59.589Z,0
2019-02-23T06:00:42.638Z,0
2019-02-23T06:01:24.519Z,4
2019-02-23T06:02:06.881Z,0
2019-02-23T06:02:47.717Z,0
2019-02-23T06:03:29.676Z,4
2019-02-23T06:04:13.026Z,0
2019-02-23T06:04:56.261Z,4
2019-02-23T06:05:37.207Z,4
2019-02-23T06:06:18.330Z,0
2019-02-23T06:07:01.437Z,0
2019-02-23T06:07:42.891Z,4
2019-02-23T06:08:30.848Z,4
2019-02-23T06:09:14.349Z,4
2019-02-23T06:09:59.388Z,4
2019-02-23T06:10:44.552Z,4
2019-02-23T06:11:27.469Z,4
2019-02-23T06:12:10.673Z,8
2019-02-23T06:12:52.189Z,8
2019-02-23T06:13:35.886Z,8
2019-02-23T06:14:18.396Z,12
2019-02-23T06:14:59.801Z,12
2019-02-23T06:15:42.337Z,16
2019-02-23T06:16:23.337Z,16
2019-02-23T06:17:04.916Z,20
2019-02-23T06:17:49.220Z,20
2019-02-23T06:18:32.853Z,20
2019-02-23T06:19:16.177Z,24
2019-02-23T06:19:56.454Z,28
2019-02-23T06:20:39.175Z,28
2019-02-23T06:21:19.620Z,32
2019-02-23T06:22:00.835Z,36
2019-02-23T06:22:41.234Z,36
2019-02-23T06:23:21.657Z,36
2019-02-23T06:24:02.738Z,40
2019-02-23T06:24:44.744Z,40
2019-02-23T06:25:25.667Z,44
2019-02-23T06:26:05.998Z,44
2019-02-23T06:26:46.548Z,48
2019-02-23T06:27:27.858Z,48
2019-02-23T06:28:08.368Z,52
2019-02-23T06:28:48.720Z,52
2019-02-23T06:29:29.331Z,56
2019-02-23T06:30:09.757Z,60
2019-02-23T06:30:50.171Z,60
2019-02-23T06:31:30.670Z,68
2019-02-23T06:32:11.796Z,68
2019-02-23T06:32:52.555Z,68
2019-02-23T06:34:59.785Z,80
2019-02-23T06:35:41.551Z,84
2019-02-23T06:36:23.669Z,88
2019-02-23T06:37:06.555Z,88
2019-02-23T06:37:48.565Z,92
2019-02-23T06:38:32.492Z,92
2019-02-23T06:39:13.101Z,100
2019-02-23T06:39:53.982Z,108
2019-02-23T06:40:34.616Z,120
2019-02-23T06:41:17.011Z,128
2019-02-23T06:44:11.101Z,136
2019-02-23T06:46:36.247Z,128
2019-02-23T06:48:59.091Z,140
2019-02-23T06:51:09.678Z,168
2019-02-23T06:53:35.188Z,160
2019-02-23T06:54:27.564Z,148
2019-02-23T06:55:07.906Z,148
2019-02-23T06:55:50.078Z,156
2019-02-23T06:56:32.166Z,156
2019-02-23T06:57:13.451Z,160
2019-02-23T07:03:05.416Z,260
2019-02-23T07:05:26.628Z,336
2019-02-23T07:06:09.160Z,360
2019-02-23T07:06:52.278Z,400
2019-02-23T07:07:33.868Z,432
2019-02-23T07:08:17.469Z,464
2019-02-23T07:09:07.308Z,488
2019-02-23T07:09:49.263Z,492
2019-02-23T07:10:29.690Z,536
2019-02-23T07:11:10.115Z,576
2019-02-23T07:11:55.486Z,648
2019-02-23T07:12:35.847Z,764
2019-02-23T07:13:23.445Z,884
2019-02-23T07:14:20.384Z,968
2019-02-23T07:18:38.404Z,1212
2019-02-23T07:19:25.275Z,1248
2019-02-23T07:20:22.662Z,1332
2019-02-23T07:21:09.955Z,1388
2019-02-23T07:21:50.398Z,1444
2019-02-23T07:22:30.842Z,1488
2019-02-23T07:25:10.680Z,1584
2019-02-23T07:25:57.778Z,1540
2019-02-23T07:26:39.501Z,1616
2019-02-23T07:27:20.167Z,1700
2019-02-23T07:28:00.289Z,1728
2019-02-23T07:28:40.836Z,1656
2019-02-23T07:29:21.583Z,1700
2019-02-23T07:30:01.988Z,1764
2019-02-23T07:30:43.459Z,1652
2019-02-23T07:31:24.292Z,1652
2019-02-23T07:32:09.940Z,1576
2019-02-23T07:32:53.972Z,1740
2019-02-23T07:33:35.270Z,1916
2019-02-23T07:34:19.128Z,1932
2019-02-23T07:34:59.601Z,1692
2019-02-23T07:35:40.534Z,1700
2019-02-23T07:36:20.979Z,1908
2019-02-23T07:37:02.307Z,1988
2019-02-23T07:37:42.753Z,1940
2019-02-23T07:38:23.946Z,1904
2019-02-23T07:39:04.437Z,1816
2019-02-23T07:39:44.980Z,1972
2019-02-23T07:40:25.959Z,1664
2019-02-23T07:41:06.192Z,1644
2019-02-23T07:41:48.024Z,1708
2019-02-23T07:42:28.431Z,1640
2019-02-23T07:43:08.996Z,1696
2019-02-23T07:43:49.411Z,1796
2019-02-23T07:44:31.116Z,2220
2019-02-23T07:45:12.054Z,2272
2019-02-23T07:45:53.010Z,2072
2019-02-23T07:46:34.039Z,2240
2019-02-23T07:47:15.296Z,2156
2019-02-23T07:47:56.608Z,2144
2019-02-23T07:48:37.476Z,2156
2019-02-23T07:49:18.669Z,2136
2019-02-23T07:49:59.788Z,2208
2019-02-23T07:50:40.914Z,1900
2019-02-23T07:51:21.871Z,1680
2019-02-23T07:52:04.504Z,1656
2019-02-23T07:52:45.423Z,1648
2019-02-23T07:53:26.544Z,1584
2019-02-23T07:54:07.137Z,1476
2019-02-23T07:54:50.222Z,1424
2019-02-23T07:55:30.943Z,1416
2019-02-23T07:56:11.523Z,1460
2019-02-23T07:56:52.307Z,1476
2019-02-23T07:57:32.887Z,1500
2019-02-23T07:58:14.109Z,1472
2019-02-23T07:58:54.178Z,1428
2019-02-23T07:59:35.207Z,1500
2019-02-23T08:00:15.933Z,1588
2019-02-23T08:00:57.728Z,1664
2019-02-23T08:01:39.275Z,1784
2019-02-23T08:02:20.488Z,1716
2019-02-23T08:03:01.155Z,1768
2019-02-23T08:03:43.882Z,1832
2019-02-23T08:04:25.008Z,2036
2019-02-23T08:05:05.621Z,2064
2019-02-23T08:05:48.238Z,1884
2019-02-23T08:06:28.264Z,1976
2019-02-23T08:07:08.726Z,2032
2019-02-23T08:07:49.294Z,1884
2019-02-23T08:08:30.219Z,1860
2019-02-23T08:09:12.971Z,1752
2019-02-23T08:09:55.218Z,1920
2019-02-23T08:10:35.689Z,1956
2019-02-23T08:11:17.135Z,2144
2019-02-23T08:11:57.777Z,2284
2019-02-23T08:12:38.711Z,2288
2019-02-23T08:13:18.966Z,2072
2019-02-23T08:13:59.857Z,2012
2019-02-23T08:14:40.296Z,1832
2019-02-23T08:15:20.748Z,1712
2019-02-23T08:16:01.597Z,1660
2019-02-23T08:16:42.465Z,1732
2019-02-23T08:17:22.786Z,1816
2019-02-23T08:18:04.179Z,1828
2019-02-23T08:18:45.337Z,1788
2019-02-23T08:19:27.948Z,1844
2019-02-23T08:20:09.466Z,2068
2019-02-23T08:20:56.124Z,2024
2019-02-23T08:21:39.430Z,2056
2019-02-23T08:22:22.075Z,1916
2019-02-23T08:23:05.555Z,1896
2019-02-23T08:23:50.187Z,1940
2019-02-23T08:24:32.124Z,1956
2019-02-23T08:25:13.122Z,1984
2019-02-23T08:25:53.993Z,2012
2019-02-23T08:26:34.897Z,1960
2019-02-23T08:27:19.294Z,1972
2019-02-23T08:28:00.468Z,1860
2019-02-23T08:28:42.011Z,1796
2019-02-23T08:29:22.732Z,1804
2019-02-23T08:30:03.125Z,1616
2019-02-23T08:30:48.380Z,1648
2019-02-23T08:31:29.141Z,1692
2019-02-23T08:34:07.660Z,1672
2019-02-23T08:34:53.927Z,1660
2019-02-23T08:35:37.306Z,1688
2019-02-23T08:36:18.099Z,1664
2019-02-23T08:37:00.684Z,1656
2019-02-23T08:37:41.970Z,1732
2019-02-23T08:38:23.294Z,1856
2019-02-23T08:39:05.408Z,1904
2019-02-23T08:39:45.711Z,1916
2019-02-23T08:40:27.103Z,1812
2019-02-23T08:41:13.078Z,1972
2019-02-23T08:41:53.623Z,1868
2019-02-23T08:42:40.750Z,1832
2019-02-23T08:43:36.848Z,1968
2019-02-23T08:44:28.403Z,1840
2019-02-23T08:57:47.193Z,1840
2019-02-23T08:58:35.143Z,1820
2019-02-23T08:59:16.702Z,1796
2019-02-23T09:07:08.809Z,1820
2019-02-23T09:13:24.962Z,1736
2019-02-23T09:14:10.586Z,1724
2019-02-23T09:14:52.790Z,1708
2019-02-23T09:15:36.166Z,1696
2019-02-23T09:16:21.092Z,1684
2019-02-23T09:17:02.870Z,1696
2019-02-23T09:17:46.211Z,1688
2019-02-23T09:18:28.389Z,1676
2019-02-23T09:19:11.593Z,1672
2019-02-23T09:19:51.969Z,1672
2019-02-23T09:20:34.400Z,1676
2019-02-23T09:21:15.735Z,1684
2019-02-23T09:21:57.084Z,1708
2019-02-23T09:22:37.497Z,1712
2019-02-23T09:23:21.719Z,1728
2019-02-23T09:24:03.941Z,1736
2019-02-23T09:24:46.898Z,1740
2019-02-23T09:25:46.266Z,1728
2019-02-23T09:26:29.057Z,1728
2019-02-23T09:27:13.915Z,1740
2019-02-23T09:27:57.649Z,1732
2019-02-23T09:28:38.522Z,1724
2019-02-23T09:29:21.867Z,1696
2019-02-23T09:30:03.881Z,1728
2019-02-23T09:30:46.554Z,1732
2019-02-23T09:31:29.399Z,1728
2019-02-23T09:32:11.313Z,1708
2019-02-23T09:32:52.039Z,1692
2019-02-23T09:33:33.737Z,1668
2019-02-23T09:34:14.026Z,1644
2019-02-23T09:34:55.333Z,1636
2019-02-23T09:35:39.696Z,1644
2019-02-23T09:36:27.184Z,1652
2019-02-23T09:37:17.490Z,1636
2019-02-23T09:37:57.831Z,1632
2019-02-23T09:38:41.913Z,1640
2019-02-23T09:39:23.225Z,1648
2019-02-23T09:40:03.872Z,1664
2019-02-23T09:40:47.249Z,1672
2019-02-23T09:41:28.265Z,1660
2019-02-23T09:42:13.138Z,1660
2019-02-23T09:42:54.560Z,1656
2019-02-23T09:43:41.065Z,1644
2019-02-23T09:46:27.371Z,1628
2019-02-23T09:47:26.163Z,1632
2019-02-23T10:02:00.887Z,1568
2019-02-23T10:02:53.774Z,1568
2019-02-23T10:03:34.285Z,1576
2019-02-23T10:04:16.655Z,1572
2019-02-23T10:04:59.220Z,1564
2019-02-23T10:05:40.904Z,1536
2019-02-23T10:06:21.051Z,1524
2019-02-23T10:07:01.730Z,1544
2019-02-23T10:07:44.130Z,1544
2019-02-23T10:08:33.002Z,1528
2019-02-23T10:09:16.613Z,1528
2019-02-23T10:09:57.029Z,1536
2019-02-23T10:10:41.233Z,1532
2019-02-23T10:11:21.611Z,1536
2019-02-23T10:12:12.417Z,1536
2019-02-23T10:16:00.992Z,1552
2019-02-23T10:16:42.923Z,1544
2019-02-23T10:17:27.048Z,1524
2019-02-23T10:18:08.549Z,1512
2019-02-23T10:18:52.513Z,1508
2019-02-23T10:19:37.929Z,1496
2019-02-23T10:20:19.642Z,1520
2019-02-23T10:21:01.708Z,1508
2019-02-23T10:21:42.091Z,1516
2019-02-23T10:22:25.352Z,1520
2019-02-23T10:23:06.843Z,1528
2019-02-23T10:23:47.100Z,1532
2019-02-23T11:10:49.909Z,1492
2019-02-23T11:11:36.664Z,1516
2019-02-23T11:12:17.975Z,1528
2019-02-23T11:12:58.478Z,1552
2019-02-23T11:13:39.043Z,1560
2019-02-23T11:14:19.481Z,1560
2019-02-23T11:14:59.847Z,1564
2019-02-23T11:15:41.039Z,1564
2019-02-23T11:16:23.301Z,1576
2019-02-23T11:17:03.862Z,1604
2019-02-23T11:17:44.288Z,1604
2019-02-23T11:18:24.901Z,1608
2019-02-23T11:19:07.082Z,1612
2019-02-23T11:19:48.432Z,1608
2019-02-23T11:20:28.880Z,1616
2019-02-23T11:21:09.582Z,1616
2019-02-23T11:21:49.979Z,1624
2019-02-23T11:22:30.417Z,1636
2019-02-23T11:23:12.795Z,1664
2019-02-23T11:23:53.579Z,1668
2019-02-23T11:24:33.897Z,1668
2019-02-23T11:25:14.542Z,1652
2019-02-23T11:25:54.710Z,1660
2019-02-23T11:26:35.064Z,1668
2019-02-23T11:27:17.250Z,1648
2019-02-23T11:27:59.641Z,1620
2019-02-23T11:28:42.657Z,1620
2019-02-23T11:29:25.741Z,1608
2019-02-23T11:30:07.036Z,1560
2019-02-23T11:30:48.487Z,1616
2019-02-23T11:31:28.914Z,1636
2019-02-23T11:32:13.093Z,1640
2019-02-23T11:32:55.381Z,1664
2019-02-23T11:33:35.899Z,1668
2019-02-23T11:34:19.220Z,1660
2019-02-23T11:34:59.669Z,1660
2019-02-23T11:35:39.945Z,1628
2019-02-23T11:36:22.232Z,1628
2019-02-23T11:37:04.561Z,1616
2019-02-23T11:37:45.111Z,1620
2019-02-23T11:38:25.507Z,1624
2019-02-23T11:39:06.068Z,1532
2019-02-23T11:39:46.621Z,1544
2019-02-23T11:40:29.094Z,1532
2019-02-23T11:41:09.434Z,1500
2019-02-23T11:41:52.055Z,1480
2019-02-23T11:42:32.410Z,1508
2019-02-23T11:43:15.038Z,1532
2019-02-23T11:43:56.606Z,1532
2019-02-23T11:44:37.712Z,1504
2019-02-23T11:45:18.196Z,1480
2019-02-23T11:45:59.303Z,1476
2019-02-23T11:46:39.705Z,1464
2019-02-23T11:47:20.117Z,1472
2019-02-23T11:48:00.465Z,1488
2019-02-23T11:48:42.909Z,1480
2019-02-23T11:49:23.326Z,1468
2019-02-23T11:50:03.757Z,1444
2019-02-23T11:50:44.155Z,1436
2019-02-23T11:51:33.171Z,1428
2019-02-23T11:52:13.734Z,1452
2019-02-23T11:52:54.968Z,1440
2019-02-23T11:53:35.450Z,1412
2019-02-23T11:54:15.723Z,1412
2019-02-23T11:54:56.116Z,1400
2019-02-23T11:55:36.900Z,1376
2019-02-23T11:56:17.538Z,1352
2019-02-23T11:57:00.056Z,1340
2019-02-23T11:57:46.040Z,1356
2019-02-23T11:58:26.914Z,1352
2019-02-23T11:59:08.393Z,1340
2019-02-23T11:59:48.747Z,1356
2019-02-23T12:00:30.811Z,1356
2019-02-23T12:01:11.474Z,1348
2019-02-23T12:01:51.982Z,1344
2019-02-23T12:02:33.846Z,1368
2019-02-23T12:18:03.487Z,1392
2019-02-23T12:18:46.832Z,1408
2019-02-23T12:19:35.104Z,1436
2019-02-23T12:20:15.549Z,1476
2019-02-23T12:20:56.466Z,1500
2019-02-23T12:21:39.304Z,1520
2019-02-23T12:22:23.074Z,1548
2019-02-23T12:23:03.550Z,1572
2019-02-23T12:23:44.859Z,1584
2019-02-23T12:24:25.698Z,1596
2019-02-23T12:25:08.174Z,1616
2019-02-23T12:25:49.168Z,1636
2019-02-23T12:26:29.477Z,1656
2019-02-23T12:27:10.002Z,1648
2019-02-23T12:27:50.406Z,1620
2019-02-23T12:28:30.909Z,1616
2019-02-23T12:29:15.096Z,1616
2019-02-23T12:29:58.697Z,1644
2019-02-23T12:30:39.262Z,1652
2019-02-23T12:31:19.650Z,1660
2019-02-23T12:32:03.582Z,1672
2019-02-23T12:32:47.106Z,1680
2019-02-23T12:33:27.410Z,1700
2019-02-23T12:34:07.802Z,1684
2019-02-23T12:34:50.147Z,1684
2019-02-23T12:35:30.737Z,1692
2019-02-23T12:36:11.163Z,1700
2019-02-23T12:36:51.609Z,1692
2019-02-23T12:37:34.016Z,1692
2019-02-23T12:38:16.442Z,1688
2019-02-23T12:38:56.684Z,1672
2019-02-23T12:39:37.169Z,1680
2019-02-23T12:40:19.513Z,1696
2019-02-23T12:41:00.875Z,1680
2019-02-23T12:41:43.158Z,1692
2019-02-23T12:42:27.588Z,1696
2019-02-23T12:43:06.752Z,1684
2019-02-23T12:43:49.127Z,1676
2019-02-23T12:44:29.551Z,1700
2019-02-23T12:45:09.919Z,1688
2019-02-23T12:45:55.120Z,1688
2019-02-23T12:46:36.663Z,1668
2019-02-23T12:47:20.024Z,1676
2019-02-23T12:48:00.546Z,1652
2019-02-23T12:48:40.941Z,1628
2019-02-23T12:49:23.173Z,1624
2019-02-23T12:50:09.535Z,1604
2019-02-23T12:50:50.184Z,1572
2019-02-23T12:51:30.443Z,1560
2019-02-23T12:52:12.710Z,1560
2019-02-23T12:52:53.163Z,1576
2019-02-23T12:53:33.437Z,1572
2019-02-23T12:54:16.921Z,1564
2019-02-23T12:54:59.976Z,1544
2019-02-23T12:55:40.379Z,1552
2019-02-23T12:56:20.794Z,1568
2019-02-23T12:57:01.398Z,1564
2019-02-23T12:57:41.795Z,1560
2019-02-23T12:58:22.235Z,1568
2019-02-23T12:59:02.646Z,1552
2019-02-23T12:59:45.941Z,1560
2019-02-23T13:00:28.164Z,1572
2019-02-23T13:01:10.371Z,1592
2019-02-23T13:01:53.659Z,1572
2019-02-23T13:02:34.102Z,1560
2019-02-23T13:03:14.530Z,1560
2019-02-23T13:03:55.278Z,1544
2019-02-23T13:04:35.679Z,1556
2019-02-23T13:05:16.064Z,1512
2019-02-23T13:05:56.475Z,1492
2019-02-23T13:06:39.783Z,1476
2019-02-23T13:07:20.211Z,1480
2019-02-23T13:08:00.721Z,1432
2019-02-23T13:08:41.141Z,1428
2019-02-23T13:09:21.523Z,1392
2019-02-23T13:10:02.882Z,1364
2019-02-23T13:10:46.857Z,1324
2019-02-23T13:11:27.275Z,1296
2019-02-23T13:12:09.316Z,1300
2019-02-23T13:12:49.633Z,1304
2019-02-23T13:13:30.071Z,1280
2019-02-23T13:14:10.464Z,1268
2019-02-23T13:18:18.101Z,1164
2019-02-23T13:19:02.138Z,1160
2019-02-23T13:19:44.365Z,1148
2019-02-23T13:23:37.637Z,1176
2019-02-23T13:24:27.451Z,1184
2019-02-23T13:24:59.033Z,1192
2019-02-23T13:25:41.275Z,1192
2019-02-23T13:26:21.665Z,1204
2019-02-23T13:27:04.998Z,1188
2019-02-23T13:27:45.341Z,1180
2019-02-23T13:28:25.761Z,1196
2019-02-23T13:29:06.160Z,1184
2019-02-23T13:29:46.693Z,1184
2019-02-23T13:30:27.138Z,1192
2019-02-23T13:31:09.178Z,1200
2019-02-23T13:31:51.330Z,1216
2019-02-23T13:32:34.071Z,1228
2019-02-23T13:33:14.533Z,1236
2019-02-23T13:33:54.994Z,1236
2019-02-23T13:34:36.422Z,1248
2019-02-23T13:35:18.816Z,1252
2019-02-23T13:36:00.774Z,1248
2019-02-23T13:36:41.162Z,1260
2019-02-23T13:37:21.630Z,1260
2019-02-23T13:38:05.962Z,1248
2019-02-23T13:38:45.710Z,1256
2019-02-23T13:39:29.816Z,1260
2019-02-23T13:40:12.559Z,1252
2019-02-23T13:40:52.989Z,1236
2019-02-23T13:41:34.163Z,1256
2019-02-23T13:42:15.614Z,1252
2019-02-23T13:42:56.437Z,1256
2019-02-23T13:43:37.031Z,1240
2019-02-23T13:44:19.271Z,1240
2019-02-23T13:44:57.872Z,1236
2019-02-23T13:45:40.523Z,1224
2019-02-23T13:46:24.048Z,1224
2019-02-23T13:47:22.620Z,1232
2019-02-23T13:48:06.867Z,1236
2019-02-23T13:48:49.286Z,1224
2019-02-23T13:49:29.769Z,1212
2019-02-23T13:50:10.108Z,1208
2019-02-23T13:50:50.768Z,1204
2019-02-23T13:51:33.851Z,1196
2019-02-23T13:52:15.416Z,1188
2019-02-23T13:52:58.180Z,1180
2019-02-23T13:57:10.590Z,1184
2019-02-23T13:57:51.219Z,1184
2019-02-23T13:58:31.414Z,1196
2019-02-23T13:59:13.721Z,1228
2019-02-23T13:59:55.087Z,1244
2019-02-23T14:00:35.551Z,1224
2019-02-23T14:01:16.406Z,1228
2019-02-23T14:01:56.457Z,1220
2019-02-23T14:02:38.812Z,1212
2019-02-23T14:03:20.801Z,1188
2019-02-23T14:04:01.171Z,1164
2019-02-23T14:04:41.604Z,1148
2019-02-23T14:05:22.138Z,1140
2019-02-23T14:06:04.233Z,1132
2019-02-23T14:06:44.688Z,1140
2019-02-23T14:09:09.183Z,1196
2019-02-23T14:09:46.549Z,1196
2019-02-23T14:10:27.902Z,1184
2019-02-23T14:11:08.819Z,1180
2019-02-23T14:11:49.203Z,1184
2019-02-23T14:12:29.637Z,1176
2019-02-23T14:13:10.058Z,1180
2019-02-23T14:13:52.113Z,1172
2019-02-23T14:14:33.469Z,1164
2019-02-23T14:15:13.922Z,1144
2019-02-23T14:15:59.336Z,1140
2019-02-23T14:16:41.658Z,1144
2019-02-23T14:17:27.580Z,1128
2019-02-23T14:18:08.246Z,1120
2019-02-23T14:18:48.724Z,1116
2019-02-23T14:19:32.897Z,1100
2019-02-23T14:20:14.950Z,1104
2019-02-23T14:20:56.461Z,1104
2019-02-23T14:21:36.945Z,1112
2019-02-23T14:22:17.452Z,1124
2019-02-23T14:22:59.587Z,1136
2019-02-23T14:23:40.228Z,1144
2019-02-23T14:24:20.635Z,1148
2019-02-23T14:25:03.900Z,1148
2019-02-23T14:25:44.336Z,1144
2019-02-23T14:26:26.533Z,1140
2019-02-23T14:27:07.010Z,1136
2019-02-23T14:27:50.935Z,1120
2019-02-23T14:28:31.347Z,1116
2019-02-23T14:29:11.791Z,1116
2019-02-23T14:29:52.206Z,1112
2019-02-23T14:30:33.687Z,1112
2019-02-23T14:31:14.050Z,1096
2019-02-23T14:31:56.434Z,1088
2019-02-23T14:32:38.432Z,1080
2019-02-23T14:33:19.296Z,1088
2019-02-23T14:34:05.633Z,1088
2019-02-23T14:34:46.080Z,1092
2019-02-23T14:35:26.439Z,1096
2019-02-23T14:36:07.232Z,1104
2019-02-23T14:36:51.218Z,1104
2019-02-23T14:37:33.160Z,1104
2019-02-23T14:38:13.587Z,1112
2019-02-23T14:38:53.953Z,1112
2019-02-23T14:39:34.777Z,1096
2019-02-23T14:40:16.681Z,1084
2019-02-23T14:40:57.371Z,1072
2019-02-23T14:41:37.882Z,1072
2019-02-23T14:42:18.218Z,1068
2019-02-23T14:42:58.642Z,1064
2019-02-23T14:43:39.216Z,1060
2019-02-23T14:44:19.702Z,1060
2019-02-23T14:45:00.052Z,1052
2019-02-23T14:45:40.496Z,1040
2019-02-23T14:46:21.868Z,1032
2019-02-23T14:47:02.389Z,1028
2019-02-23T14:47:42.778Z,1024
2019-02-23T14:48:23.297Z,1016
2019-02-23T14:49:03.613Z,1008
2019-02-23T14:49:43.948Z,1004
2019-02-23T14:50:24.359Z,1004
2019-02-23T14:51:05.982Z,1004
2019-02-23T14:51:46.329Z,1004
2019-02-23T14:52:27.377Z,1008
2019-02-23T14:53:09.895Z,1008
2019-02-23T14:53:50.608Z,1008
2019-02-23T14:54:32.402Z,1008
2019-02-23T14:55:12.967Z,1000
2019-02-23T14:55:53.756Z,992
2019-02-23T14:56:35.377Z,984
2019-02-23T14:57:15.906Z,984
2019-02-23T14:57:57.028Z,984
2019-02-23T14:58:36.758Z,988
2019-02-23T14:59:21.601Z,988
2019-02-23T15:00:01.913Z,988
2019-02-23T15:00:44.562Z,984
2019-02-23T15:01:24.964Z,984
2019-02-23T15:02:05.666Z,984
2019-02-23T15:02:47.662Z,984
2019-02-23T15:03:28.107Z,980
2019-02-23T15:04:09.492Z,980
2019-02-23T15:04:51.605Z,988
2019-02-23T15:05:33.658Z,992
2019-02-23T15:06:15.934Z,1000
2019-02-23T15:06:56.359Z,1012
2019-02-23T15:07:36.723Z,1024
2019-02-23T15:08:17.093Z,1028
2019-02-23T15:08:59.190Z,1036
2019-02-23T15:09:40.809Z,1032
2019-02-23T15:10:21.215Z,1024
2019-02-23T15:11:02.514Z,1016
2019-02-23T15:11:43.015Z,1008
2019-02-23T15:12:23.339Z,1012
2019-02-23T15:13:04.383Z,1016
2019-02-23T15:13:45.785Z,1012
2019-02-23T15:14:26.469Z,1004
2019-02-23T15:15:08.631Z,1004
2019-02-23T15:15:51.179Z,1008
2019-02-23T15:16:29.432Z,1048
2019-02-23T15:17:09.806Z,1124
2019-02-23T15:17:50.520Z,1196
2019-02-23T15:18:30.791Z,1220
2019-02-23T15:19:12.985Z,1224
2019-02-23T15:19:53.368Z,1228